Time;durP1;ratioP1;P1;durP2;ratioP2;P2;SDS_P1;SDS_P2;PMS_P1;PMS_P2;Temp;Humidity;BMP_temperature;BMP_pressure;BME280_temperature;BME280_humidity;BME280_pressure;Samples;Min_cycle;Max_cycle;Signal;HPM_P1;HPM_P2
2021/12/22 00:01:00;;;;;;;34.67;20.67;;;-0.60;99.90;;;;;;4995336;28;20037;-65
2021/12/22 00:03:26;;;;;;;33.00;19.90;;;-0.60;99.90;;;;;;4998693;28;20034;-64
2021/12/22 00:05:52;;;;;;;28.53;19.57;;;-0.60;99.90;;;;;;4999957;28;20656;-63
2021/12/22 00:08:18;;;;;;;27.90;17.70;;;-0.60;99.90;;;;;;4978827;28;21503;-65
2021/12/22 00:10:45;;;;;;;36.00;22.17;;;-0.60;99.90;;;;;;4987864;28;20665;-65
2021/12/22 00:13:11;;;;;;;31.87;19.97;;;-0.60;99.90;;;;;;4992739;28;20052;-65
2021/12/22 00:15:38;;;;;;;35.83;21.03;;;-0.60;99.90;;;;;;5005021;28;20504;-63
2021/12/22 00:18:04;;;;;;;29.70;19.57;;;-0.60;99.90;;;;;;5000850;28;20044;-64
2021/12/22 00:20:30;;;;;;;29.47;19.47;;;-0.70;99.90;;;;;;5000334;28;20060;-64
2021/12/22 00:22:55;;;;;;;38.10;20.83;;;-0.60;99.90;;;;;;4987857;28;20038;-63
2021/12/22 00:25:25;;;;;;;31.17;20.10;;;-0.70;99.90;;;;;;4992214;28;20096;-65
2021/12/22 00:27:51;;;;;;;29.63;19.93;;;-0.70;99.90;;;;;;4986702;28;20034;-66
2021/12/22 00:30:17;;;;;;;32.23;20.10;;;-0.70;99.90;;;;;;4991591;28;20066;-65
2021/12/22 00:32:50;;;;;;;31.67;21.20;;;-0.70;99.90;;;;;;5003305;28;20072;-63
2021/12/22 00:35:19;;;;;;;31.93;20.50;;;-0.80;99.90;;;;;;5003080;28;20383;-65
2021/12/22 00:37:45;;;;;;;29.20;19.50;;;-0.80;99.90;;;;;;4982836;28;20152;-64
2021/12/22 00:40:11;;;;;;;27.80;17.43;;;-0.80;99.90;;;;;;5001346;28;20030;-65
2021/12/22 00:42:37;;;;;;;34.43;19.83;;;-0.80;99.90;;;;;;5001863;28;20046;-65
2021/12/22 00:45:03;;;;;;;31.10;20.23;;;-0.90;99.90;;;;;;5000129;28;20049;-64
2021/12/22 00:47:31;;;;;;;30.03;19.97;;;-0.80;99.90;;;;;;4994266;28;20308;-64
2021/12/22 00:49:58;;;;;;;32.37;19.97;;;-0.80;99.90;;;;;;4973806;28;20053;-65
2021/12/22 00:52:25;;;;;;;29.47;18.50;;;-0.90;99.90;;;;;;4987596;28;20592;-66
2021/12/22 00:54:51;;;;;;;33.43;19.03;;;-0.80;99.90;;;;;;5006205;28;22470;-63
2021/12/22 00:57:17;;;;;;;36.97;19.40;;;-0.80;99.90;;;;;;4983051;28;20049;-64
2021/12/22 00:59:45;;;;;;;33.77;19.43;;;-0.90;99.90;;;;;;4980476;28;20623;-64
2021/12/22 01:02:12;;;;;;;28.47;18.57;;;-0.80;99.90;;;;;;4978317;28;20181;-64
2021/12/22 01:04:39;;;;;;;29.13;18.03;;;-0.90;99.90;;;;;;4980764;28;20042;-64
2021/12/22 01:07:05;;;;;;;29.40;18.17;;;-0.90;99.90;;;;;;4975276;28;20034;-64
2021/12/22 01:09:32;;;;;;;31.23;19.13;;;-0.90;99.90;;;;;;4979895;28;20050;-64
2021/12/22 01:11:58;;;;;;;26.37;17.57;;;-0.90;99.90;;;;;;4989158;28;20045;-65
2021/12/22 01:14:23;;;;;;;29.80;17.70;;;-0.90;99.90;;;;;;4975992;28;20083;-65
2021/12/22 01:16:53;;;;;;;33.23;20.63;;;-0.90;99.90;;;;;;4990231;28;20045;-65
2021/12/22 01:19:32;;;;;;;27.83;18.53;;;-0.90;99.90;;;;;;4983236;28;20073;-63
2021/12/22 01:22:07;;;;;;;27.53;18.07;;;-0.90;99.90;;;;;;5000819;28;20042;-65
2021/12/22 01:24:34;;;;;;;27.90;17.97;;;-1.00;99.90;;;;;;5002300;28;20053;-66
2021/12/22 01:27:07;;;;;;;30.97;18.30;;;-1.00;99.90;;;;;;4989251;28;20111;-64
2021/12/22 01:29:35;;;;;;;28.75;17.90;;;-1.00;99.90;;;;;;4996385;28;20049;-65
2021/12/22 01:32:01;;;;;;;23.23;15.83;;;-1.00;99.90;;;;;;5002034;28;20117;-63
2021/12/22 01:34:28;;;;;;;26.07;16.00;;;-1.10;99.90;;;;;;4990166;28;20034;-61
2021/12/22 01:36:54;;;;;;;27.30;16.73;;;-1.10;99.90;;;;;;4990387;28;20046;-63
2021/12/22 01:39:20;;;;;;;27.30;17.13;;;-1.10;99.90;;;;;;4986278;28;20052;-61
2021/12/22 01:41:46;;;;;;;28.27;17.27;;;-1.20;99.90;;;;;;4990617;28;20069;-62
2021/12/22 01:44:25;;;;;;;24.73;15.23;;;-1.20;99.90;;;;;;4993969;28;20145;-63
2021/12/22 01:49:50;;;;;;;22.13;15.53;;;-1.20;99.90;;;;;;4989080;28;20046;-61
2021/12/22 01:52:18;;;;;;;26.27;15.87;;;-1.20;99.90;;;;;;4989266;28;20077;-63
2021/12/22 01:55:04;;;;;;;29.97;17.80;;;-1.20;99.90;;;;;;4988195;28;20049;-61
2021/12/22 01:57:33;;;;;;;21.40;14.00;;;-1.20;99.90;;;;;;4986833;28;20173;-61
2021/12/22 02:00:01;;;;;;;25.70;15.57;;;-1.20;99.90;;;;;;4989599;28;20045;-63
2021/12/22 02:02:29;;;;;;;26.40;16.37;;;-1.20;99.90;;;;;;5002011;28;20045;-62
2021/12/22 02:04:54;;;;;;;22.97;15.40;;;-1.30;99.90;;;;;;4974328;28;20040;-63
2021/12/22 02:07:20;;;;;;;24.13;15.13;;;-1.30;99.90;;;;;;4988161;28;20050;-64
2021/12/22 02:12:12;;;;;;;31.13;17.73;;;-1.30;99.90;;;;;;4975737;28;20626;-62
2021/12/22 02:14:40;;;;;;;21.77;16.13;;;-1.30;99.90;;;;;;4974385;28;20055;-61
2021/12/22 02:17:09;;;;;;;24.23;15.53;;;-1.30;99.90;;;;;;4980182;28;20049;-61
2021/12/22 02:19:37;;;;;;;23.67;13.83;;;-1.30;99.90;;;;;;4961573;28;20050;-61
2021/12/22 02:22:10;;;;;;;26.30;15.73;;;-1.30;99.90;;;;;;4982445;28;20045;-62
2021/12/22 02:24:36;;;;;;;25.87;16.47;;;-1.30;99.90;;;;;;4977887;28;20467;-62
2021/12/22 02:27:07;;;;;;;24.90;15.67;;;-1.30;99.90;;;;;;4981183;28;20074;-64
2021/12/22 02:29:38;;;;;;;22.90;15.17;;;-1.40;99.90;;;;;;4994446;28;20487;-63
2021/12/22 02:34:45;;;;;;;23.87;15.60;;;-1.40;99.90;;;;;;4973784;28;20578;-63
2021/12/22 02:37:15;;;;;;;20.83;15.50;;;-1.40;99.90;;;;;;4977547;28;20045;-62
2021/12/22 02:39:58;;;;;;;22.17;15.20;;;-1.40;99.90;;;;;;4973026;28;20046;-62
2021/12/22 02:42:32;;;;;;;23.17;16.47;;;-1.40;99.90;;;;;;4980118;28;20119;-62
2021/12/22 02:45:10;;;;;;;30.10;16.93;;;-1.40;99.90;;;;;;4981217;28;20038;-62
2021/12/22 02:47:36;;;;;;;27.47;16.97;;;-1.40;99.90;;;;;;4984441;28;20058;-61
2021/12/22 02:50:04;;;;;;;29.03;16.10;;;-1.50;99.90;;;;;;4969404;28;20042;-63
2021/12/22 02:52:38;;;;;;;23.33;15.40;;;-1.40;99.90;;;;;;4990587;28;20041;-62
2021/12/22 02:55:04;;;;;;;24.73;15.00;;;-1.40;99.90;;;;;;4987769;28;20038;-63
2021/12/22 02:57:44;;;;;;;24.33;16.37;;;-1.40;99.90;;;;;;4987014;28;20057;-61
2021/12/22 03:03:14;;;;;;;22.60;15.13;;;-1.50;99.90;;;;;;4981950;28;20042;-63
2021/12/22 03:05:40;;;;;;;22.43;13.77;;;-1.50;99.90;;;;;;4987076;28;20053;-63
2021/12/22 03:08:06;;;;;;;25.20;15.77;;;-1.50;99.90;;;;;;4985304;28;20092;-62
2021/12/22 03:10:32;;;;;;;25.53;14.97;;;-1.50;99.90;;;;;;5005368;28;20073;-62
2021/12/22 03:13:03;;;;;;;22.57;14.87;;;-1.50;99.90;;;;;;4988220;28;20044;-63
2021/12/22 03:15:29;;;;;;;24.17;16.03;;;-1.60;99.90;;;;;;5012102;28;20069;-63
2021/12/22 03:17:56;;;;;;;24.73;15.33;;;-1.60;99.90;;;;;;4993106;28;20077;-62
2021/12/22 03:20:21;;;;;;;26.23;15.90;;;-1.50;99.90;;;;;;4988288;28;20042;-63
2021/12/22 03:22:47;;;;;;;22.90;15.13;;;-1.60;99.90;;;;;;4990724;28;20408;-61
2021/12/22 03:25:16;;;;;;;23.23;14.87;;;-1.60;99.90;;;;;;4989546;28;20483;-61
2021/12/22 03:27:45;;;;;;;23.60;14.60;;;-1.60;99.90;;;;;;4993704;28;20153;-60
2021/12/22 03:30:11;;;;;;;28.27;16.30;;;-1.60;99.90;;;;;;4991825;28;20037;-62
2021/12/22 03:32:37;;;;;;;26.53;16.53;;;-1.60;99.90;;;;;;4991112;28;20431;-61
2021/12/22 03:35:03;;;;;;;22.20;15.40;;;-1.60;99.90;;;;;;4993821;28;20045;-62
2021/12/22 03:37:29;;;;;;;27.97;15.47;;;-1.60;99.90;;;;;;4994105;28;20439;-63
2021/12/22 03:39:55;;;;;;;22.97;16.07;;;-1.60;99.90;;;;;;5002211;28;20049;-61
2021/12/22 03:42:20;;;;;;;26.03;17.07;;;-1.60;99.90;;;;;;4990085;28;20273;-63
2021/12/22 03:44:46;;;;;;;26.13;17.27;;;-1.60;99.90;;;;;;4995037;28;20076;-62
2021/12/22 03:47:12;;;;;;;26.20;16.17;;;-1.60;99.90;;;;;;4999474;28;22408;-61
2021/12/22 03:49:38;;;;;;;31.77;16.60;;;-1.50;99.90;;;;;;4986827;28;20095;-61
2021/12/22 03:52:04;;;;;;;24.43;16.43;;;-1.50;99.90;;;;;;4980947;28;20050;-64
2021/12/22 03:54:30;;;;;;;22.37;16.33;;;-1.50;99.90;;;;;;4996989;28;20038;-62
2021/12/22 03:56:56;;;;;;;25.73;14.97;;;-1.50;99.90;;;;;;4991463;28;20038;-63
2021/12/22 03:59:23;;;;;;;28.37;14.93;;;-1.50;99.90;;;;;;4994267;28;20460;-62
2021/12/22 04:01:50;;;;;;;22.50;13.53;;;-1.50;99.90;;;;;;4977956;28;20376;-62
2021/12/22 04:04:18;;;;;;;24.40;15.93;;;-1.50;99.90;;;;;;4996345;28;20122;-61
2021/12/22 04:06:46;;;;;;;22.73;14.27;;;-1.60;99.90;;;;;;4993243;28;21078;-64
2021/12/22 04:09:13;;;;;;;26.67;16.77;;;-1.60;99.90;;;;;;4975144;28;20160;-64
2021/12/22 04:11:39;;;;;;;26.57;15.77;;;-1.60;99.90;;;;;;4991911;28;20050;-62
2021/12/22 04:14:05;;;;;;;26.73;14.83;;;-1.60;99.90;;;;;;4994047;28;20475;-61
2021/12/22 04:16:31;;;;;;;23.70;15.40;;;-1.50;99.90;;;;;;5007099;28;20048;-61
2021/12/22 04:18:57;;;;;;;27.70;15.57;;;-1.50;99.90;;;;;;4975395;28;21226;-64
2021/12/22 04:21:23;;;;;;;23.73;15.47;;;-1.50;99.90;;;;;;4999709;28;20823;-63
2021/12/22 04:23:49;;;;;;;26.03;15.10;;;-1.50;99.90;;;;;;5001025;28;20031;-63
2021/12/22 04:26:15;;;;;;;24.27;15.73;;;-1.50;99.90;;;;;;4996598;28;20072;-62
2021/12/22 04:28:42;;;;;;;26.87;17.10;;;-1.60;99.90;;;;;;4990288;28;20054;-63
2021/12/22 04:31:08;;;;;;;27.90;15.43;;;-1.50;99.90;;;;;;5002569;28;20080;-63
2021/12/22 04:33:34;;;;;;;27.27;16.10;;;-1.50;99.90;;;;;;4990817;28;20050;-63
2021/12/22 04:36:00;;;;;;;27.17;16.03;;;-1.60;99.90;;;;;;5004178;28;20376;-63
2021/12/22 04:38:27;;;;;;;23.07;14.60;;;-1.60;99.90;;;;;;5024328;23;20041;-58
2021/12/22 04:40:53;;;;;;;24.93;15.30;;;-1.60;99.90;;;;;;5002300;28;20112;-58
2021/12/22 04:43:18;;;;;;;27.67;16.23;;;-1.60;99.90;;;;;;5001951;28;20448;-56
2021/12/22 04:45:44;;;;;;;31.87;15.93;;;-1.60;99.90;;;;;;4972742;28;20132;-57
2021/12/22 04:48:10;;;;;;;26.87;15.53;;;-1.60;99.90;;;;;;5003489;28;20048;-54
2021/12/22 04:50:37;;;;;;;24.53;15.97;;;-1.60;99.90;;;;;;5005933;28;20132;-58
2021/12/22 04:53:15;;;;;;;25.30;16.17;;;-1.60;99.90;;;;;;4998823;28;20188;-58
2021/12/22 04:55:41;;;;;;;24.37;14.77;;;-1.60;99.90;;;;;;5002520;28;20052;-58
2021/12/22 04:58:07;;;;;;;25.60;15.23;;;-1.60;99.90;;;;;;5000507;28;20065;-57
2021/12/22 05:00:35;;;;;;;29.40;15.10;;;-1.60;99.90;;;;;;5000514;28;20048;-54
2021/12/22 05:03:01;;;;;;;28.63;15.27;;;-1.60;99.90;;;;;;5012444;28;20041;-54
2021/12/22 05:05:28;;;;;;;26.60;15.53;;;-1.60;99.90;;;;;;5003781;28;20041;-53
2021/12/22 05:07:54;;;;;;;28.93;16.23;;;-1.60;99.90;;;;;;4992269;28;20111;-55
2021/12/22 05:10:21;;;;;;;25.03;15.90;;;-1.60;99.90;;;;;;5001470;28;20073;-52
2021/12/22 05:12:47;;;;;;;24.40;15.23;;;-1.70;99.90;;;;;;5001927;28;20053;-56
2021/12/22 05:15:14;;;;;;;25.47;15.53;;;-1.60;99.90;;;;;;4987818;28;20045;-55
2021/12/22 05:20:09;;;;;;;24.73;15.43;;;-1.70;99.90;;;;;;5002194;28;20564;-57
2021/12/22 05:22:35;;;;;;;29.57;16.00;;;-1.70;99.90;;;;;;4984244;28;20377;-56
2021/12/22 05:25:04;;;;;;;25.23;16.00;;;-1.70;99.90;;;;;;5003507;28;20041;-57
2021/12/22 05:27:30;;;;;;;28.77;15.67;;;-1.70;99.90;;;;;;5013187;28;20060;-56
2021/12/22 05:29:57;;;;;;;25.77;16.77;;;-1.60;99.90;;;;;;4993608;28;20123;-54
2021/12/22 05:32:26;;;;;;;24.23;15.07;;;-1.70;99.90;;;;;;4985791;28;20041;-56
2021/12/22 05:34:52;;;;;;;30.63;17.27;;;-1.70;99.90;;;;;;4998766;28;20120;-55
2021/12/22 05:37:18;;;;;;;23.30;13.70;;;-1.70;99.90;;;;;;5003139;28;20428;-55
2021/12/22 05:39:44;;;;;;;24.67;15.10;;;-1.60;99.90;;;;;;4997140;28;20069;-55
2021/12/22 05:42:10;;;;;;;28.07;17.53;;;-1.70;99.90;;;;;;5003564;28;20300;-52
2021/12/22 05:44:35;;;;;;;29.17;15.60;;;-1.70;99.90;;;;;;5003522;28;20049;-52
2021/12/22 05:47:02;;;;;;;26.90;16.53;;;-1.70;99.90;;;;;;5002896;28;20080;-53
2021/12/22 05:49:27;;;;;;;25.17;15.80;;;-1.70;99.90;;;;;;5000885;28;20045;-55
2021/12/22 05:51:53;;;;;;;30.03;16.80;;;-1.70;99.90;;;;;;4997693;28;20095;-56
2021/12/22 05:54:19;;;;;;;28.53;16.23;;;-1.70;99.90;;;;;;4996826;28;20552;-55
2021/12/22 05:56:44;;;;;;;28.30;16.53;;;-1.70;99.90;;;;;;5000660;28;20048;-57
2021/12/22 05:59:10;;;;;;;27.30;16.13;;;-1.80;99.90;;;;;;4995703;28;20114;-55
2021/12/22 06:01:36;;;;;;;29.20;16.40;;;-1.70;99.90;;;;;;4974018;28;20081;-55
2021/12/22 06:04:03;;;;;;;31.97;19.80;;;-1.80;99.90;;;;;;4990957;28;20271;-58
2021/12/22 06:06:29;;;;;;;36.63;21.53;;;-1.80;99.90;;;;;;4997085;28;20053;-55
2021/12/22 06:08:55;;;;;;;27.13;15.43;;;-1.80;99.90;;;;;;4999165;28;20353;-52
2021/12/22 06:11:21;;;;;;;26.07;16.60;;;-1.80;99.90;;;;;;4998398;28;20516;-54
2021/12/22 06:13:47;;;;;;;29.93;17.73;;;-1.80;99.90;;;;;;4997831;28;20471;-57
2021/12/22 06:16:13;;;;;;;26.60;16.53;;;-1.80;99.90;;;;;;4983415;28;20045;-55
2021/12/22 06:18:43;;;;;;;27.60;16.57;;;-1.80;99.90;;;;;;5001251;28;20049;-57
2021/12/22 06:21:11;;;;;;;29.47;17.53;;;-1.90;99.90;;;;;;5000543;28;20034;-55
2021/12/22 06:23:37;;;;;;;32.50;18.73;;;-1.90;99.90;;;;;;4998612;28;20492;-55
2021/12/22 06:26:03;;;;;;;24.07;15.60;;;-1.90;99.90;;;;;;5003352;28;20073;-58
2021/12/22 06:28:28;;;;;;;26.97;17.43;;;-1.90;99.90;;;;;;4977740;28;20042;-51
2021/12/22 06:30:54;;;;;;;32.67;18.13;;;-1.90;99.90;;;;;;4998523;28;20129;-57
2021/12/22 06:33:20;;;;;;;22.53;15.43;;;-1.90;99.90;;;;;;4988403;28;20041;-55
2021/12/22 06:35:49;;;;;;;27.67;15.73;;;-1.90;99.90;;;;;;4998505;28;20334;-56
2021/12/22 06:38:16;;;;;;;34.20;17.50;;;-1.90;99.90;;;;;;5000674;28;20715;-55
2021/12/22 06:40:43;;;;;;;26.10;16.10;;;-2.00;99.90;;;;;;5000666;28;20069;-55
2021/12/22 06:43:09;;;;;;;25.97;15.57;;;-2.00;99.90;;;;;;5012231;28;20084;-58
2021/12/22 06:45:35;;;;;;;24.87;14.97;;;-2.00;99.90;;;;;;5002439;28;20038;-54
2021/12/22 06:48:00;;;;;;;25.87;14.13;;;-2.10;99.90;;;;;;5007904;28;20485;-56
2021/12/22 06:50:26;;;;;;;26.70;15.60;;;-2.10;99.90;;;;;;4988262;28;20822;-55
2021/12/22 06:52:52;;;;;;;25.10;16.07;;;-2.10;99.90;;;;;;5000603;28;20046;-56
2021/12/22 06:55:18;;;;;;;28.17;14.73;;;-2.10;99.90;;;;;;4994980;28;20111;-53
2021/12/22 06:57:45;;;;;;;28.13;16.20;;;-2.10;99.90;;;;;;5017536;28;20038;-53
2021/12/22 07:00:12;;;;;;;29.37;17.07;;;-2.10;99.90;;;;;;4992686;28;20049;-56
2021/12/22 07:02:39;;;;;;;26.60;15.80;;;-2.10;99.90;;;;;;4999095;28;20096;-56
2021/12/22 07:05:07;;;;;;;32.40;16.93;;;-2.10;99.90;;;;;;4976767;28;20031;-53
2021/12/22 07:07:34;;;;;;;29.93;18.03;;;-2.10;99.90;;;;;;5002302;28;20048;-54
2021/12/22 07:09:59;;;;;;;27.47;16.17;;;-2.10;99.90;;;;;;4995352;28;20038;-58
2021/12/22 07:12:25;;;;;;;34.07;17.17;;;-2.10;99.90;;;;;;5016446;28;20041;-56
2021/12/22 07:14:51;;;;;;;26.53;16.17;;;-2.10;99.90;;;;;;5000658;28;20049;-53
2021/12/22 07:17:17;;;;;;;27.00;15.43;;;-2.10;99.90;;;;;;4999516;28;20038;-52
2021/12/22 07:19:43;;;;;;;25.40;15.60;;;-2.10;99.90;;;;;;4999640;28;20062;-56
2021/12/22 07:22:08;;;;;;;25.23;15.13;;;-2.10;99.90;;;;;;4972435;28;20037;-57
2021/12/22 07:24:35;;;;;;;27.03;15.43;;;-2.00;99.90;;;;;;5005602;28;21099;-55
2021/12/22 07:27:01;;;;;;;26.13;14.37;;;-2.10;99.90;;;;;;4972890;28;20049;-58
2021/12/22 07:29:26;;;;;;;25.50;14.80;;;-2.10;99.90;;;;;;5005641;28;20037;-53
2021/12/22 07:31:52;;;;;;;26.97;15.40;;;-2.00;99.90;;;;;;5003072;28;21590;-53
2021/12/22 07:34:21;;;;;;;25.57;14.40;;;-2.00;99.90;;;;;;5005835;28;20376;-53
2021/12/22 07:37:08;;;;;;;29.70;15.40;;;-2.00;99.90;;;;;;4999502;28;20657;-57
2021/12/22 07:39:34;;;;;;;21.93;14.90;;;-2.00;99.90;;;;;;5005301;28;20038;-58
2021/12/22 07:42:00;;;;;;;25.80;14.63;;;-2.00;99.90;;;;;;5002618;28;20038;-54
2021/12/22 07:44:26;;;;;;;23.87;14.77;;;-1.90;99.90;;;;;;5007157;28;20522;-54
2021/12/22 07:46:52;;;;;;;27.10;14.13;;;-2.00;99.90;;;;;;4974750;28;20583;-55
2021/12/22 07:49:18;;;;;;;30.10;15.33;;;-2.00;99.90;;;;;;5015665;28;20040;-55
2021/12/22 07:51:44;;;;;;;26.23;14.67;;;-1.90;99.90;;;;;;5003258;28;20045;-55
2021/12/22 07:54:09;;;;;;;29.73;17.00;;;-1.90;99.90;;;;;;5019617;28;20037;-55
2021/12/22 07:56:35;;;;;;;25.67;14.87;;;-1.90;99.90;;;;;;5010681;28;20053;-54
2021/12/22 07:59:01;;;;;;;31.77;16.23;;;-1.90;99.90;;;;;;4997240;28;20030;-57
2021/12/22 08:01:27;;;;;;;22.33;13.93;;;-1.90;99.90;;;;;;4992501;28;20053;-55
2021/12/22 08:03:52;;;;;;;31.23;15.83;;;-1.90;99.90;;;;;;5023107;28;20045;-52
2021/12/22 08:06:18;;;;;;;27.20;14.37;;;-1.90;99.90;;;;;;5014265;28;20124;-54
2021/12/22 08:08:44;;;;;;;25.83;14.30;;;-1.90;99.90;;;;;;5011974;28;20176;-55
2021/12/22 08:11:10;;;;;;;28.07;15.73;;;-1.90;99.90;;;;;;5014510;28;20072;-52
2021/12/22 08:13:36;;;;;;;27.77;14.50;;;-1.90;99.90;;;;;;5007868;28;20473;-55
2021/12/22 08:16:02;;;;;;;33.53;15.77;;;-1.90;99.90;;;;;;4998039;28;20046;-54
2021/12/22 08:18:28;;;;;;;23.37;14.10;;;-1.90;99.90;;;;;;4996271;28;20100;-54
2021/12/22 08:20:53;;;;;;;28.50;15.97;;;-1.80;99.90;;;;;;5001215;28;20052;-57
2021/12/22 08:23:19;;;;;;;32.17;15.33;;;-1.80;99.90;;;;;;5018108;28;20041;-55
2021/12/22 08:25:48;;;;;;;29.03;16.37;;;-1.80;99.90;;;;;;5014812;28;20042;-55
2021/12/22 08:28:14;;;;;;;30.17;15.73;;;-1.70;99.90;;;;;;5022644;28;20096;-55
2021/12/22 08:30:40;;;;;;;27.27;15.30;;;-1.70;99.90;;;;;;5009931;28;20065;-54
2021/12/22 08:33:13;;;;;;;27.00;14.43;;;-1.70;99.90;;;;;;4995367;28;20042;-56
2021/12/22 08:41:10;;;;;;;26.40;14.70;;;-1.60;99.90;;;;;;4993639;28;20038;-56
2021/12/22 08:43:36;;;;;;;28.47;13.53;;;-1.60;99.90;;;;;;5010909;28;20048;-51
2021/12/22 08:46:02;;;;;;;28.63;14.83;;;-1.60;99.90;;;;;;5012653;28;20034;-52
2021/12/22 08:48:28;;;;;;;26.37;14.70;;;-1.50;99.90;;;;;;5007291;28;20045;-53
2021/12/22 08:50:54;;;;;;;26.63;14.87;;;-1.60;99.90;;;;;;4990296;28;20045;-55
2021/12/22 08:53:20;;;;;;;25.80;15.40;;;-1.50;99.90;;;;;;5013089;28;20325;-56
2021/12/22 08:55:46;;;;;;;21.83;14.33;;;-1.50;99.90;;;;;;5015957;28;20496;-52
2021/12/22 08:58:11;;;;;;;25.37;14.17;;;-1.50;99.90;;;;;;5000634;28;20153;-54
2021/12/22 09:00:38;;;;;;;24.00;14.33;;;-1.50;99.90;;;;;;5012892;28;20468;-53
2021/12/22 09:03:04;;;;;;;24.20;14.97;;;-1.50;99.90;;;;;;5017024;28;20053;-52
2021/12/22 09:05:29;;;;;;;27.23;15.47;;;-1.50;99.90;;;;;;4985121;28;20084;-52
2021/12/22 09:07:55;;;;;;;31.47;16.00;;;-1.50;99.90;;;;;;5009426;28;20049;-53
2021/12/22 09:10:21;;;;;;;25.20;14.47;;;-1.40;99.90;;;;;;4999754;28;20516;-56
2021/12/22 09:12:47;;;;;;;29.57;16.20;;;-1.40;99.90;;;;;;4996277;28;20057;-55
2021/12/22 09:15:13;;;;;;;25.00;14.87;;;-1.40;99.90;;;;;;5012772;28;20768;-54
2021/12/22 09:17:39;;;;;;;26.43;16.13;;;-1.40;99.90;;;;;;4994475;28;20041;-54
2021/12/22 09:20:06;;;;;;;28.30;15.60;;;-1.40;99.90;;;;;;5014474;28;20044;-55
2021/12/22 09:22:31;;;;;;;30.37;15.57;;;-1.30;99.90;;;;;;4995470;28;20041;-57
2021/12/22 09:24:57;;;;;;;25.63;14.67;;;-1.30;99.90;;;;;;5007346;28;20556;-56
2021/12/22 09:27:23;;;;;;;28.67;15.93;;;-1.30;99.90;;;;;;4991472;28;20124;-57
2021/12/22 09:29:49;;;;;;;27.30;15.73;;;-1.20;99.90;;;;;;4999230;28;20480;-54
2021/12/22 09:32:21;;;;;;;29.57;16.47;;;-1.20;99.90;;;;;;5061252;27;20498;-55
2021/12/22 09:34:49;;;;;;;23.23;14.77;;;-1.20;99.90;;;;;;5037866;28;20058;-54
2021/12/22 09:37:17;;;;;;;27.73;15.07;;;-1.20;99.90;;;;;;5057735;28;20037;-52
2021/12/22 09:39:42;;;;;;;29.67;16.00;;;-1.20;99.90;;;;;;5048120;28;20037;-56
2021/12/22 09:42:10;;;;;;;29.73;15.53;;;-1.10;99.90;;;;;;5035613;28;20412;-53
2021/12/22 09:44:43;;;;;;;32.40;15.83;;;-1.10;99.90;;;;;;5044635;28;20139;-53
2021/12/22 09:47:10;;;;;;;28.92;14.25;;;-1.10;99.90;;;;;;5044198;28;20519;-56
2021/12/22 09:52:19;;;;;;;31.40;16.47;;;-0.90;99.90;;;;;;5032302;28;20135;-52
2021/12/22 09:54:56;;;;;;;27.40;15.20;;;-0.90;99.90;;;;;;5055279;28;20033;-52
2021/12/22 09:57:23;;;;;;;30.60;15.97;;;-0.80;99.90;;;;;;5047741;28;20500;-53
2021/12/22 09:59:51;;;;;;;31.77;15.57;;;-0.80;99.90;;;;;;5046575;28;20048;-53
2021/12/22 10:02:18;;;;;;;26.90;15.53;;;-0.80;99.90;;;;;;5045252;28;20403;-53
2021/12/22 10:04:46;;;;;;;25.63;15.13;;;-0.70;99.90;;;;;;5055735;28;20055;-57
2021/12/22 10:07:25;;;;;;;27.70;15.73;;;-0.70;99.90;;;;;;5053990;28;20052;-52
2021/12/22 10:09:53;;;;;;;28.30;15.77;;;-0.70;99.90;;;;;;5048999;28;20048;-55
2021/12/22 10:12:24;;;;;;;27.20;15.57;;;-0.70;99.90;;;;;;5052196;28;20048;-56
2021/12/22 10:14:59;;;;;;;27.23;15.53;;;-0.70;99.90;;;;;;5049173;28;20036;-52
2021/12/22 10:17:35;;;;;;;30.63;15.67;;;-0.60;99.90;;;;;;5050939;28;20032;-57
2021/12/22 10:20:11;;;;;;;28.67;17.97;;;-0.60;99.90;;;;;;5047016;28;20087;-55
2021/12/22 10:22:49;;;;;;;31.23;15.77;;;-0.60;99.90;;;;;;5052868;28;20044;-53
2021/12/22 10:25:24;;;;;;;28.50;16.80;;;-0.50;99.90;;;;;;5044886;28;20037;-53
2021/12/22 10:28:02;;;;;;;27.17;14.97;;;-0.50;99.90;;;;;;5043809;28;20499;-53
2021/12/22 10:30:29;;;;;;;28.80;14.97;;;-0.50;99.90;;;;;;5034445;28;20192;-53
2021/12/22 10:33:11;;;;;;;29.83;15.93;;;-0.40;99.90;;;;;;5048617;28;20047;-53
2021/12/22 10:35:39;;;;;;;27.40;15.97;;;-0.40;99.90;;;;;;5049462;28;20282;-51
2021/12/22 10:38:10;;;;;;;25.23;16.10;;;-0.30;99.90;;;;;;5064635;22;20060;-78
2021/12/22 10:40:50;;;;;;;25.30;15.23;;;-0.20;99.90;;;;;;5036736;28;20044;-78
2021/12/22 10:43:19;;;;;;;29.10;15.73;;;-0.20;99.90;;;;;;5048786;28;20045;-77
2021/12/22 10:45:48;;;;;;;26.13;14.73;;;-0.10;99.90;;;;;;5037769;28;20143;-77
2021/12/22 10:51:05;;;;;;;27.10;15.43;;;-0.10;99.90;;;;;;5041976;28;20087;-83
2021/12/22 10:53:39;;;;;;;27.83;16.20;;;-0.10;99.90;;;;;;5030690;28;20433;-81
2021/12/22 10:56:05;;;;;;;25.87;15.53;;;0.00;99.90;;;;;;5025657;28;20184;-81
2021/12/22 10:58:34;;;;;;;26.67;14.97;;;0.00;99.90;;;;;;5021851;28;20563;-81
2021/12/22 11:01:03;;;;;;;28.07;16.43;;;0.00;99.90;;;;;;5027413;28;20047;-81
2021/12/22 11:03:38;;;;;;;29.80;17.13;;;0.10;99.90;;;;;;5028533;28;20419;-80
2021/12/22 11:06:14;;;;;;;28.27;16.57;;;0.10;99.90;;;;;;5041182;28;20045;-82
2021/12/22 11:08:41;;;;;;;27.37;16.10;;;0.20;99.90;;;;;;5045852;28;20467;-82
2021/12/22 11:11:16;;;;;;;33.53;19.20;;;0.20;99.90;;;;;;5028411;28;20397;-82
2021/12/22 11:13:42;;;;;;;48.43;27.47;;;0.20;99.90;;;;;;5040366;28;20056;-82
2021/12/22 11:16:12;;;;;;;48.27;25.97;;;0.20;99.90;;;;;;5026832;28;20033;-79
2021/12/22 11:18:38;;;;;;;37.17;20.97;;;0.20;99.90;;;;;;5031676;28;20099;-81
2021/12/22 11:21:10;;;;;;;30.47;16.63;;;0.20;99.90;;;;;;5042686;28;20132;-81
2021/12/22 11:23:36;;;;;;;30.90;17.17;;;0.20;99.90;;;;;;5027958;28;20041;-82
2021/12/22 11:26:03;;;;;;;31.10;15.60;;;0.20;99.90;;;;;;5026938;28;20052;-82
2021/12/22 11:28:31;;;;;;;33.20;16.60;;;0.30;99.90;;;;;;5014627;28;20331;-85
2021/12/22 11:30:57;;;;;;;29.63;16.27;;;0.40;99.90;;;;;;5023584;28;20038;-83
2021/12/22 11:33:25;;;;;;;27.90;16.10;;;0.40;99.90;;;;;;5044840;28;20051;-83
2021/12/22 11:35:55;;;;;;;24.95;15.45;;;0.50;99.90;;;;;;5021510;28;20417;-84
2021/12/22 11:38:21;;;;;;;28.40;16.13;;;0.70;99.90;;;;;;5025155;28;20052;-85
2021/12/22 11:40:54;;;;;;;26.83;15.83;;;0.80;99.90;;;;;;5024917;28;20056;-85
2021/12/22 11:43:21;;;;;;;27.48;16.13;;;0.70;99.90;;;;;;5014853;28;20044;-83
2021/12/22 11:45:48;;;;;;;29.90;16.33;;;0.70;99.90;;;;;;5036489;28;20040;-84
2021/12/22 11:48:18;;;;;;;29.75;17.27;;;0.70;99.90;;;;;;5039071;28;20132;-83
2021/12/22 11:50:48;;;;;;;31.50;15.97;;;0.70;99.90;;;;;;5025862;28;20138;-82
2021/12/22 11:53:17;;;;;;;27.73;14.48;;;0.80;99.90;;;;;;5025397;28;20436;-85
2021/12/22 11:56:09;;;;;;;29.23;15.95;;;0.70;99.90;;;;;;5030363;28;20033;-84
2021/12/22 11:58:35;;;;;;;28.13;15.63;;;0.70;99.90;;;;;;5025500;28;20068;-84
2021/12/22 12:01:11;;;;;;;25.83;15.48;;;0.90;99.90;;;;;;5021936;28;20622;-85
2021/12/22 12:03:40;;;;;;;26.35;15.63;;;0.80;99.90;;;;;;5028650;28;20041;-83
2021/12/22 12:06:17;;;;;;;25.90;16.48;;;1.10;99.90;;;;;;5025679;28;20520;-84
2021/12/22 12:08:51;;;;;;;28.23;15.75;;;0.90;99.90;;;;;;5026004;28;20032;-84
2021/12/22 12:11:44;;;;;;;30.95;16.85;;;0.90;99.90;;;;;;5040329;28;20112;-81
2021/12/22 12:14:35;;;;;;;24.55;14.60;;;0.90;99.90;;;;;;5028599;28;20095;-81
2021/12/22 12:23:31;;;;;;;27.65;14.20;;;1.00;99.90;;;;;;5046678;28;20048;-82
2021/12/22 12:26:06;;;;;;;28.42;15.40;;;1.00;99.90;;;;;;5041494;28;20029;-82
2021/12/22 12:28:46;;;;;;;26.85;14.77;;;1.00;99.90;;;;;;5015170;28;20049;-84
2021/12/22 12:31:12;;;;;;;25.60;15.25;;;1.00;99.90;;;;;;5050831;28;20041;-81
2021/12/22 12:33:44;;;;;;;27.48;15.27;;;1.00;99.90;;;;;;5023543;28;20075;-82
2021/12/22 12:36:12;;;;;;;26.58;14.50;;;1.00;99.90;;;;;;5029450;28;20044;-82
2021/12/22 12:38:49;;;;;;;25.05;15.05;;;0.90;99.90;;;;;;5042931;28;20037;-84
2021/12/22 12:41:15;;;;;;;27.35;14.88;;;0.90;99.90;;;;;;5029359;28;20169;-82
2021/12/22 12:43:44;;;;;;;25.60;15.50;;;0.90;99.90;;;;;;5046431;28;20128;-82
2021/12/22 12:46:19;;;;;;;25.85;15.30;;;0.90;99.90;;;;;;5047520;28;20419;-82
2021/12/22 12:48:49;;;;;;;25.23;15.07;;;0.90;99.90;;;;;;5038581;28;20048;-81
2021/12/22 12:51:18;;;;;;;24.42;14.15;;;0.90;99.90;;;;;;5029016;28;20037;-81
2021/12/22 12:53:48;;;;;;;23.17;13.88;;;1.10;99.90;;;;;;5031705;28;20037;-81
2021/12/22 12:56:16;;;;;;;26.42;14.65;;;0.90;99.90;;;;;;5046914;28;20041;-83
2021/12/22 12:59:01;;;;;;;24.95;14.13;;;0.90;99.90;;;;;;5044465;28;20112;-83
2021/12/22 13:01:50;;;;;;;25.42;14.95;;;0.80;99.90;;;;;;5048727;28;20154;-82
2021/12/22 13:04:37;;;;;;;24.08;14.57;;;0.80;99.90;;;;;;5042467;28;20203;-82